Aviation Digital Data Service (ADDS)

Output produced by METARs form (1911 UTC 03 September 2015)
found at http://www.aviationweather.gov/adds/metars/
 
KLNS 031853Z VRB05KT 10SM FEW055 32/18 A2988 RMK AO2 SLP114 T03170178
KLNS 031753Z VRB06KT 10SM CLR 32/18 A2990 RMK AO2 SLP119 T03220178 10322 20217 56013
KLNS 031653Z 33005KT 9SM CLR 31/19 A2991 RMK AO2 SLP123 T03110189
KLNS 031553Z 04007KT 8SM CLR 30/20 A2992 RMK AO2 SLP128 T03000200
KLNS 031453Z 33007KT 7SM CLR 29/20 A2993 RMK AO2 SLP133 T02890200 50001
KLNS 031353Z 33004KT 6SM HZ CLR 27/20 A2994 RMK AO2 SLP135 T02720200
KLNS 031253Z 29003KT 3SM HZ CLR 23/19 A2993 RMK AO2 SLP132 T02330194
KLNS 031153Z 00000KT 3SM BR CLR 22/19 A2993 RMK AO2 SLP132 T02170194 10217 20189 52007
KLNS 031053Z 28003KT 3SM BR CLR 19/18 A2993 RMK AO2 SLP131 T01940183
KLNS 031030Z 00000KT 3SM BR CLR 20/19 A2992 RMK AO2 T02000189
KLNS 031012Z 00000KT 2 1/2SM BR CLR 19/18 A2991 RMK AO2 T01890183
KLNS 030953Z 30003KT 4SM BR CLR 20/19 A2991 RMK AO2 SLP125 T02000189
KLNS 030853Z 27005KT 4SM BR CLR 20/19 A2991 RMK AO2 SLP124 T02000189 55004
KLNS 030753Z 28003KT 4SM BR CLR 21/19 A2990 RMK AO2 SLP122 T02110194
KLNS 030653Z 00000KT 4SM BR CLR 21/19 A2990 RMK AO2 SLP120 T02110194
KLNS 030553Z 26005KT 5SM BR CLR 22/20 A2992 RMK AO2 SLP127 T02170200 10283 20211 58008
KLNS 030453Z 27006KT 6SM BR CLR 22/20 A2993 RMK AO2 SLP133 T02220200 403170172
KLNS 030353Z 26005KT 5SM HZ FEW070 23/20 A2994 RMK AO2 SLP134 T02280200
KLNS 030253Z 28005KT 7SM CLR 23/19 A2994 RMK AO2 SLP136 T02280189 53007
KLNS 030153Z 28004KT 7SM CLR 24/19 A2993 RMK AO2 SLP132 T02440189
KLNS 030053Z 00000KT 8SM CLR 26/18 A2993 RMK AO2 SLP130 T02560183
KLNS 022353Z 00000KT 9SM CLR 28/17 A2992 RMK AO2 SLP129 T02780172 10317 20261 58007
KLNS 022253Z 00000KT 8SM CLR 29/17 A2993 RMK AO2 SLP131 T02940172
KLNS 022153Z 36005KT 8SM CLR 31/17 A2994 RMK AO2 SLP137 T03060167
KLNS 022053Z 32009KT 300V360 8SM CLR 31/16 A2994 RMK AO2 SLP136 T03110161 55014
KLNS 021953Z 30009KT 8SM CLR 32/17 A2994 RMK AO2 SLP136 T03170167
KLNS 021853Z VRB03KT 9SM CLR 32/16 A2997 RMK AO2 SLP145 T03170161
KLNS 021753Z 33007KT 10SM CLR 31/16 A2999 RMK AO2 SLP151 T03110156 10317 20194 58018
KLNS 021653Z 30010KT 9SM CLR 30/17 A3001 RMK AO2 SLP159 T03000172
KLNS 021553Z 30007KT 9SM CLR 29/18 A3003 RMK AO2 SLP165 T02940183
KLNS 021453Z 00000KT 6SM HZ CLR 27/19 A3004 RMK AO2 SLP169 T02720194 58008
KLNS 021353Z 29006KT 5SM HZ CLR 24/19 A3005 RMK AO2 SLP172 T02440194
KLNS 021300Z 28004KT 3SM HZ CLR 22/19 A3006 RMK AO2 T02220194
KLNS 021253Z 00000KT 2 1/2SM HZ CLR 22/19 A3006 RMK AO2 SLP175 T02220194
KLNS 021153Z 00000KT 2SM BR CLR 19/18 A3006 RMK AO2 SLP177 T01940183 10194 20172 53007
KLNS 021126Z 00000KT 2 1/2SM BR CLR 18/17 A3006 RMK AO2 T01830172
KLNS 021117Z 00000KT 1 3/4SM BR CLR 18/17 A3006 RMK AO2 T01830172
KLNS 021105Z 00000KT 2 1/2SM BR CLR 18/18 A3006 RMK AO2 T01830178
KLNS 021053Z 00000KT 3SM BR CLR 18/17 A3005 RMK AO2 SLP173 T01830172
KLNS 021050Z 00000KT 3SM BR CLR 18/17 A3005 RMK AO2
KLNS 021032Z 00000KT 2SM BR CLR 18/18 A3005 RMK AO2 T01830178
KLNS 020953Z AUTO 06003KT 4SM BR CLR 17/17 A3004 RMK AO2 SLP170 T01720167
KLNS 020853Z AUTO 00000KT 4SM BR CLR 19/18 A3004 RMK AO2 SLP170 T01940178 55005
KLNS 020753Z AUTO 00000KT 4SM BR CLR 19/18 A3004 RMK AO2 SLP169 T01940183